sensor_id;sensor_type;location;lat;lon;timestamp;P1;durP1;ratioP1;P2;durP2;ratioP2
76995;SDS011;65929;49.062;10.338;2023-11-21T00:00:24;3.90;;;1.15;;
76995;SDS011;65929;49.062;10.338;2023-11-21T00:01:26;3.25;;;1.55;;
76995;SDS011;65929;49.062;10.338;2023-11-21T00:02:26;3.63;;;0.90;;
76995;SDS011;65929;49.062;10.338;2023-11-21T00:03:28;2.90;;;1.20;;
76995;SDS011;65929;49.062;10.338;2023-11-21T00:04:29;2.22;;;0.98;;
76995;SDS011;65929;49.062;10.338;2023-11-21T00:05:30;2.13;;;1.00;;
76995;SDS011;65929;49.062;10.338;2023-11-21T00:06:30;2.83;;;0.90;;
76995;SDS011;65929;49.062;10.338;2023-11-21T00:07:31;2.42;;;1.02;;
76995;SDS011;65929;49.062;10.338;2023-11-21T00:08:32;3.05;;;0.98;;
76995;SDS011;65929;49.062;10.338;2023-11-21T00:09:33;3.60;;;1.20;;
76995;SDS011;65929;49.062;10.338;2023-11-21T00:10:36;1.85;;;0.90;;
76995;SDS011;65929;49.062;10.338;2023-11-21T00:11:38;2.33;;;0.85;;
76995;SDS011;65929;49.062;10.338;2023-11-21T00:12:39;2.88;;;0.98;;
76995;SDS011;65929;49.062;10.338;2023-11-21T00:13:42;3.30;;;0.90;;
76995;SDS011;65929;49.062;10.338;2023-11-21T00:14:44;2.22;;;1.20;;
76995;SDS011;65929;49.062;10.338;2023-11-21T00:15:46;1.45;;;0.85;;
76995;SDS011;65929;49.062;10.338;2023-11-21T00:16:48;5.43;;;1.10;;
76995;SDS011;65929;49.062;10.338;2023-11-21T00:17:49;3.38;;;1.27;;
76995;SDS011;65929;49.062;10.338;2023-11-21T00:18:49;4.25;;;0.93;;
76995;SDS011;65929;49.062;10.338;2023-11-21T00:19:51;4.47;;;1.20;;
76995;SDS011;65929;49.062;10.338;2023-11-21T00:20:54;3.25;;;0.68;;
76995;SDS011;65929;49.062;10.338;2023-11-21T00:21:55;1.70;;;0.93;;
76995;SDS011;65929;49.062;10.338;2023-11-21T00:22:58;2.50;;;1.10;;
76995;SDS011;65929;49.062;10.338;2023-11-21T00:23:59;1.30;;;0.55;;
76995;SDS011;65929;49.062;10.338;2023-11-21T00:25:00;3.53;;;0.77;;
76995;SDS011;65929;49.062;10.338;2023-11-21T00:26:01;3.80;;;0.90;;
76995;SDS011;65929;49.062;10.338;2023-11-21T00:27:04;1.60;;;0.90;;
76995;SDS011;65929;49.062;10.338;2023-11-21T00:28:06;3.08;;;1.13;;
76995;SDS011;65929;49.062;10.338;2023-11-21T00:29:07;1.98;;;0.70;;
76995;SDS011;65929;49.062;10.338;2023-11-21T00:30:08;1.75;;;0.73;;
76995;SDS011;65929;49.062;10.338;2023-11-21T00:31:11;1.33;;;0.98;;
76995;SDS011;65929;49.062;10.338;2023-11-21T00:32:12;2.53;;;0.63;;
76995;SDS011;65929;49.062;10.338;2023-11-21T00:33:13;3.83;;;0.70;;
76995;SDS011;65929;49.062;10.338;2023-11-21T00:34:14;5.38;;;0.98;;
76995;SDS011;65929;49.062;10.338;2023-11-21T00:35:15;1.35;;;0.50;;
76995;SDS011;65929;49.062;10.338;2023-11-21T00:36:16;1.45;;;0.55;;
76995;SDS011;65929;49.062;10.338;2023-11-21T00:37:17;2.35;;;0.75;;
76995;SDS011;65929;49.062;10.338;2023-11-21T00:38:18;2.15;;;0.60;;
76995;SDS011;65929;49.062;10.338;2023-11-21T00:39:20;1.70;;;0.80;;
76995;SDS011;65929;49.062;10.338;2023-11-21T00:40:21;4.15;;;1.00;;
76995;SDS011;65929;49.062;10.338;2023-11-21T00:41:22;1.50;;;0.50;;
76995;SDS011;65929;49.062;10.338;2023-11-21T00:42:23;1.73;;;0.57;;
76995;SDS011;65929;49.062;10.338;2023-11-21T00:43:24;2.03;;;0.68;;
76995;SDS011;65929;49.062;10.338;2023-11-21T00:44:25;2.95;;;0.70;;
76995;SDS011;65929;49.062;10.338;2023-11-21T00:45:29;0.75;;;0.70;;
76995;SDS011;65929;49.062;10.338;2023-11-21T00:46:31;0.93;;;0.57;;
76995;SDS011;65929;49.062;10.338;2023-11-21T00:47:32;1.98;;;0.82;;
76995;SDS011;65929;49.062;10.338;2023-11-21T00:48:33;3.58;;;0.90;;
76995;SDS011;65929;49.062;10.338;2023-11-21T00:49:34;4.03;;;0.80;;
76995;SDS011;65929;49.062;10.338;2023-11-21T00:50:35;3.55;;;1.00;;
76995;SDS011;65929;49.062;10.338;2023-11-21T00:51:36;3.60;;;1.33;;
76995;SDS011;65929;49.062;10.338;2023-11-21T00:52:36;1.17;;;0.52;;
76995;SDS011;65929;49.062;10.338;2023-11-21T00:53:37;1.80;;;0.63;;
76995;SDS011;65929;49.062;10.338;2023-11-21T00:54:39;3.88;;;0.73;;
76995;SDS011;65929;49.062;10.338;2023-11-21T00:55:40;1.88;;;0.82;;
76995;SDS011;65929;49.062;10.338;2023-11-21T00:56:41;1.80;;;0.60;;
76995;SDS011;65929;49.062;10.338;2023-11-21T00:57:42;2.13;;;0.70;;
76995;SDS011;65929;49.062;10.338;2023-11-21T00:58:43;2.45;;;0.88;;
76995;SDS011;65929;49.062;10.338;2023-11-21T00:59:46;1.77;;;0.80;;
76995;SDS011;65929;49.062;10.338;2023-11-21T01:00:47;2.33;;;0.80;;
76995;SDS011;65929;49.062;10.338;2023-11-21T01:01:50;2.85;;;1.13;;
76995;SDS011;65929;49.062;10.338;2023-11-21T01:02:51;1.30;;;0.70;;
76995;SDS011;65929;49.062;10.338;2023-11-21T01:03:52;5.05;;;0.80;;
76995;SDS011;65929;49.062;10.338;2023-11-21T01:04:54;3.85;;;1.00;;
76995;SDS011;65929;49.062;10.338;2023-11-21T01:05:55;3.35;;;1.63;;
76995;SDS011;65929;49.062;10.338;2023-11-21T01:06:55;3.38;;;1.10;;
76995;SDS011;65929;49.062;10.338;2023-11-21T01:07:56;3.78;;;1.02;;
76995;SDS011;65929;49.062;10.338;2023-11-21T01:08:57;2.95;;;0.90;;
76995;SDS011;65929;49.062;10.338;2023-11-21T01:09:58;2.53;;;0.90;;
76995;SDS011;65929;49.062;10.338;2023-11-21T01:10:59;0.85;;;0.75;;
76995;SDS011;65929;49.062;10.338;2023-11-21T01:12:00;1.65;;;0.90;;
76995;SDS011;65929;49.062;10.338;2023-11-21T01:13:01;4.57;;;0.90;;
76995;SDS011;65929;49.062;10.338;2023-11-21T01:14:05;2.03;;;1.02;;
76995;SDS011;65929;49.062;10.338;2023-11-21T01:15:08;4.07;;;1.00;;
76995;SDS011;65929;49.062;10.338;2023-11-21T01:16:12;3.65;;;0.80;;
76995;SDS011;65929;49.062;10.338;2023-11-21T01:17:14;2.70;;;0.95;;
76995;SDS011;65929;49.062;10.338;2023-11-21T01:18:15;2.67;;;1.13;;
76995;SDS011;65929;49.062;10.338;2023-11-21T01:19:16;5.28;;;1.30;;
76995;SDS011;65929;49.062;10.338;2023-11-21T01:20:17;1.95;;;0.70;;
76995;SDS011;65929;49.062;10.338;2023-11-21T01:21:18;5.13;;;1.33;;
76995;SDS011;65929;49.062;10.338;2023-11-21T01:22:18;2.78;;;1.02;;
76995;SDS011;65929;49.062;10.338;2023-11-21T01:23:25;2.65;;;0.70;;
76995;SDS011;65929;49.062;10.338;2023-11-21T01:24:27;2.90;;;1.25;;
76995;SDS011;65929;49.062;10.338;2023-11-21T01:25:27;2.45;;;0.80;;
76995;SDS011;65929;49.062;10.338;2023-11-21T01:26:28;3.35;;;0.98;;
76995;SDS011;65929;49.062;10.338;2023-11-21T01:27:29;2.22;;;0.88;;
76995;SDS011;65929;49.062;10.338;2023-11-21T01:28:30;4.68;;;0.90;;
76995;SDS011;65929;49.062;10.338;2023-11-21T01:29:31;1.23;;;0.85;;
76995;SDS011;65929;49.062;10.338;2023-11-21T01:30:32;1.92;;;0.70;;
76995;SDS011;65929;49.062;10.338;2023-11-21T01:31:33;4.10;;;1.52;;
76995;SDS011;65929;49.062;10.338;2023-11-21T01:32:35;3.08;;;1.00;;
76995;SDS011;65929;49.062;10.338;2023-11-21T01:33:36;3.65;;;1.17;;
76995;SDS011;65929;49.062;10.338;2023-11-21T01:34:37;1.48;;;0.70;;
76995;SDS011;65929;49.062;10.338;2023-11-21T01:35:38;1.42;;;0.80;;
76995;SDS011;65929;49.062;10.338;2023-11-21T01:36:39;2.50;;;0.93;;
76995;SDS011;65929;49.062;10.338;2023-11-21T01:37:40;1.45;;;1.05;;
76995;SDS011;65929;49.062;10.338;2023-11-21T01:38:40;2.55;;;0.88;;
76995;SDS011;65929;49.062;10.338;2023-11-21T01:39:42;2.58;;;0.95;;
76995;SDS011;65929;49.062;10.338;2023-11-21T01:40:45;5.13;;;1.00;;
76995;SDS011;65929;49.062;10.338;2023-11-21T01:41:45;3.85;;;0.98;;
76995;SDS011;65929;49.062;10.338;2023-11-21T01:42:46;0.93;;;0.75;;
76995;SDS011;65929;49.062;10.338;2023-11-21T01:43:48;3.63;;;1.02;;
76995;SDS011;65929;49.062;10.338;2023-11-21T01:44:49;3.80;;;1.17;;
76995;SDS011;65929;49.062;10.338;2023-11-21T01:45:50;1.70;;;0.65;;
76995;SDS011;65929;49.062;10.338;2023-11-21T01:46:51;5.10;;;0.95;;
76995;SDS011;65929;49.062;10.338;2023-11-21T01:47:53;1.50;;;0.95;;
76995;SDS011;65929;49.062;10.338;2023-11-21T01:48:54;3.25;;;0.77;;
76995;SDS011;65929;49.062;10.338;2023-11-21T01:49:55;2.35;;;0.90;;
76995;SDS011;65929;49.062;10.338;2023-11-21T01:50:56;4.57;;;0.80;;
76995;SDS011;65929;49.062;10.338;2023-11-21T01:51:57;0.82;;;0.68;;
76995;SDS011;65929;49.062;10.338;2023-11-21T01:52:59;0.80;;;0.60;;
76995;SDS011;65929;49.062;10.338;2023-11-21T01:54:01;1.20;;;0.63;;
76995;SDS011;65929;49.062;10.338;2023-11-21T01:55:05;2.17;;;1.02;;
76995;SDS011;65929;49.062;10.338;2023-11-21T01:56:08;2.45;;;0.80;;
76995;SDS011;65929;49.062;10.338;2023-11-21T01:57:10;0.88;;;0.60;;
76995;SDS011;65929;49.062;10.338;2023-11-21T01:58:11;2.72;;;0.77;;
76995;SDS011;65929;49.062;10.338;2023-11-21T01:59:18;2.95;;;1.15;;
76995;SDS011;65929;49.062;10.338;2023-11-21T02:00:21;5.07;;;1.15;;
76995;SDS011;65929;49.062;10.338;2023-11-21T02:01:23;4.15;;;1.33;;
76995;SDS011;65929;49.062;10.338;2023-11-21T02:02:26;0.77;;;0.63;;
76995;SDS011;65929;49.062;10.338;2023-11-21T02:03:28;1.23;;;0.65;;
76995;SDS011;65929;49.062;10.338;2023-11-21T02:04:29;2.15;;;0.77;;
76995;SDS011;65929;49.062;10.338;2023-11-21T02:05:30;1.95;;;0.80;;
76995;SDS011;65929;49.062;10.338;2023-11-21T02:06:31;1.60;;;0.60;;
76995;SDS011;65929;49.062;10.338;2023-11-21T02:07:31;2.40;;;0.80;;
76995;SDS011;65929;49.062;10.338;2023-11-21T02:08:32;1.35;;;0.85;;
76995;SDS011;65929;49.062;10.338;2023-11-21T02:09:33;2.17;;;0.70;;
76995;SDS011;65929;49.062;10.338;2023-11-21T02:10:34;3.78;;;0.70;;
76995;SDS011;65929;49.062;10.338;2023-11-21T02:11:37;2.95;;;0.70;;
76995;SDS011;65929;49.062;10.338;2023-11-21T02:12:39;1.83;;;0.75;;
76995;SDS011;65929;49.062;10.338;2023-11-21T02:13:40;2.88;;;0.93;;
76995;SDS011;65929;49.062;10.338;2023-11-21T02:14:45;1.88;;;1.00;;
76995;SDS011;65929;49.062;10.338;2023-11-21T02:15:46;1.40;;;0.80;;
76995;SDS011;65929;49.062;10.338;2023-11-21T02:16:50;3.95;;;0.70;;
76995;SDS011;65929;49.062;10.338;2023-11-21T02:17:51;0.80;;;0.80;;
76995;SDS011;65929;49.062;10.338;2023-11-21T02:18:55;3.85;;;0.65;;
76995;SDS011;65929;49.062;10.338;2023-11-21T02:19:57;3.45;;;0.90;;
76995;SDS011;65929;49.062;10.338;2023-11-21T02:20:58;0.65;;;0.50;;
76995;SDS011;65929;49.062;10.338;2023-11-21T02:22:03;3.88;;;0.90;;
76995;SDS011;65929;49.062;10.338;2023-11-21T02:23:07;3.63;;;0.90;;
76995;SDS011;65929;49.062;10.338;2023-11-21T02:24:08;1.73;;;0.60;;
76995;SDS011;65929;49.062;10.338;2023-11-21T02:25:10;2.60;;;0.70;;
76995;SDS011;65929;49.062;10.338;2023-11-21T02:26:11;1.67;;;0.80;;
76995;SDS011;65929;49.062;10.338;2023-11-21T02:27:12;2.40;;;0.70;;
76995;SDS011;65929;49.062;10.338;2023-11-21T02:28:13;1.63;;;0.68;;
76995;SDS011;65929;49.062;10.338;2023-11-21T02:29:16;3.65;;;1.15;;
76995;SDS011;65929;49.062;10.338;2023-11-21T02:30:18;3.08;;;0.73;;
76995;SDS011;65929;49.062;10.338;2023-11-21T02:31:19;0.88;;;0.73;;
76995;SDS011;65929;49.062;10.338;2023-11-21T02:32:20;2.22;;;0.60;;
76995;SDS011;65929;49.062;10.338;2023-11-21T02:33:23;1.77;;;1.00;;
76995;SDS011;65929;49.062;10.338;2023-11-21T02:34:23;1.67;;;0.60;;
76995;SDS011;65929;49.062;10.338;2023-11-21T02:35:27;2.03;;;0.75;;
76995;SDS011;65929;49.062;10.338;2023-11-21T02:36:28;1.52;;;0.80;;
76995;SDS011;65929;49.062;10.338;2023-11-21T02:37:30;2.45;;;0.82;;
76995;SDS011;65929;49.062;10.338;2023-11-21T02:38:32;3.17;;;0.88;;
76995;SDS011;65929;49.062;10.338;2023-11-21T02:39:33;2.45;;;0.60;;
76995;SDS011;65929;49.062;10.338;2023-11-21T02:40:34;3.25;;;0.77;;
76995;SDS011;65929;49.062;10.338;2023-11-21T02:41:34;1.88;;;1.67;;
76995;SDS011;65929;49.062;10.338;2023-11-21T02:42:36;2.08;;;0.90;;
76995;SDS011;65929;49.062;10.338;2023-11-21T02:43:37;1.40;;;0.85;;
76995;SDS011;65929;49.062;10.338;2023-11-21T02:44:38;1.40;;;0.73;;
76995;SDS011;65929;49.062;10.338;2023-11-21T02:45:39;2.30;;;1.15;;
76995;SDS011;65929;49.062;10.338;2023-11-21T02:46:41;3.63;;;1.10;;
76995;SDS011;65929;49.062;10.338;2023-11-21T02:47:43;3.53;;;1.10;;
76995;SDS011;65929;49.062;10.338;2023-11-21T02:48:44;2.20;;;1.45;;
76995;SDS011;65929;49.062;10.338;2023-11-21T02:49:45;1.85;;;0.88;;
76995;SDS011;65929;49.062;10.338;2023-11-21T02:50:46;1.67;;;0.90;;
76995;SDS011;65929;49.062;10.338;2023-11-21T02:51:47;2.83;;;0.98;;
76995;SDS011;65929;49.062;10.338;2023-11-21T02:52:48;1.77;;;0.88;;
76995;SDS011;65929;49.062;10.338;2023-11-21T02:53:50;1.80;;;0.85;;
76995;SDS011;65929;49.062;10.338;2023-11-21T02:54:52;2.00;;;1.10;;
76995;SDS011;65929;49.062;10.338;2023-11-21T02:55:53;1.85;;;0.90;;
76995;SDS011;65929;49.062;10.338;2023-11-21T02:56:54;1.02;;;0.93;;
76995;SDS011;65929;49.062;10.338;2023-11-21T02:57:55;2.95;;;1.30;;
76995;SDS011;65929;49.062;10.338;2023-11-21T02:58:59;2.83;;;0.95;;
76995;SDS011;65929;49.062;10.338;2023-11-21T03:00:00;1.33;;;0.93;;
76995;SDS011;65929;49.062;10.338;2023-11-21T03:01:01;3.13;;;0.93;;
76995;SDS011;65929;49.062;10.338;2023-11-21T03:02:02;4.25;;;1.00;;
76995;SDS011;65929;49.062;10.338;2023-11-21T03:03:03;1.52;;;0.90;;
76995;SDS011;65929;49.062;10.338;2023-11-21T03:04:04;1.90;;;1.00;;
76995;SDS011;65929;49.062;10.338;2023-11-21T03:05:06;1.75;;;0.90;;
76995;SDS011;65929;49.062;10.338;2023-11-21T03:06:09;4.20;;;1.17;;
76995;SDS011;65929;49.062;10.338;2023-11-21T03:07:10;3.83;;;1.48;;
76995;SDS011;65929;49.062;10.338;2023-11-21T03:08:10;2.65;;;1.00;;
76995;SDS011;65929;49.062;10.338;2023-11-21T03:09:13;2.17;;;1.13;;
76995;SDS011;65929;49.062;10.338;2023-11-21T03:10:13;3.38;;;1.20;;
76995;SDS011;65929;49.062;10.338;2023-11-21T03:11:14;1.73;;;1.10;;
76995;SDS011;65929;49.062;10.338;2023-11-21T03:12:15;1.45;;;0.90;;
76995;SDS011;65929;49.062;10.338;2023-11-21T03:13:16;3.40;;;0.90;;
76995;SDS011;65929;49.062;10.338;2023-11-21T03:14:17;3.15;;;1.13;;
76995;SDS011;65929;49.062;10.338;2023-11-21T03:15:18;1.83;;;1.08;;
76995;SDS011;65929;49.062;10.338;2023-11-21T03:16:19;2.08;;;1.00;;
76995;SDS011;65929;49.062;10.338;2023-11-21T03:17:20;5.55;;;1.33;;
76995;SDS011;65929;49.062;10.338;2023-11-21T03:18:21;5.03;;;1.42;;
76995;SDS011;65929;49.062;10.338;2023-11-21T03:19:23;4.88;;;1.42;;
76995;SDS011;65929;49.062;10.338;2023-11-21T03:20:23;3.80;;;1.45;;
76995;SDS011;65929;49.062;10.338;2023-11-21T03:21:25;2.95;;;1.33;;
76995;SDS011;65929;49.062;10.338;2023-11-21T03:22:26;3.33;;;1.23;;
76995;SDS011;65929;49.062;10.338;2023-11-21T03:23:27;1.77;;;0.80;;
76995;SDS011;65929;49.062;10.338;2023-11-21T03:24:29;2.15;;;1.00;;
76995;SDS011;65929;49.062;10.338;2023-11-21T03:25:30;2.88;;;0.93;;
76995;SDS011;65929;49.062;10.338;2023-11-21T03:26:31;2.42;;;0.93;;
76995;SDS011;65929;49.062;10.338;2023-11-21T03:27:32;3.05;;;0.93;;
76995;SDS011;65929;49.062;10.338;2023-11-21T03:28:33;3.08;;;1.80;;
76995;SDS011;65929;49.062;10.338;2023-11-21T03:29:34;1.73;;;1.00;;
76995;SDS011;65929;49.062;10.338;2023-11-21T03:30:37;4.05;;;1.08;;
76995;SDS011;65929;49.062;10.338;2023-11-21T03:31:38;2.40;;;0.95;;
76995;SDS011;65929;49.062;10.338;2023-11-21T03:32:39;5.60;;;1.58;;
76995;SDS011;65929;49.062;10.338;2023-11-21T03:33:40;1.98;;;0.80;;
76995;SDS011;65929;49.062;10.338;2023-11-21T03:34:52;3.40;;;1.00;;
76995;SDS011;65929;49.062;10.338;2023-11-21T03:35:55;1.52;;;0.70;;
76995;SDS011;65929;49.062;10.338;2023-11-21T03:36:56;2.42;;;1.00;;
76995;SDS011;65929;49.062;10.338;2023-11-21T03:37:57;2.15;;;1.00;;
76995;SDS011;65929;49.062;10.338;2023-11-21T03:38:58;2.70;;;1.27;;
76995;SDS011;65929;49.062;10.338;2023-11-21T03:40:00;1.65;;;1.00;;
76995;SDS011;65929;49.062;10.338;2023-11-21T03:41:04;4.40;;;1.20;;
76995;SDS011;65929;49.062;10.338;2023-11-21T03:42:06;2.92;;;1.02;;
76995;SDS011;65929;49.062;10.338;2023-11-21T03:43:07;1.50;;;1.02;;
76995;SDS011;65929;49.062;10.338;2023-11-21T03:44:08;3.25;;;1.15;;
76995;SDS011;65929;49.062;10.338;2023-11-21T03:45:09;2.38;;;1.20;;
76995;SDS011;65929;49.062;10.338;2023-11-21T03:46:10;2.85;;;1.20;;
76995;SDS011;65929;49.062;10.338;2023-11-21T03:47:10;3.95;;;1.20;;
76995;SDS011;65929;49.062;10.338;2023-11-21T03:48:12;1.73;;;1.20;;
76995;SDS011;65929;49.062;10.338;2023-11-21T03:49:13;3.88;;;1.40;;
76995;SDS011;65929;49.062;10.338;2023-11-21T03:50:14;2.30;;;1.33;;
76995;SDS011;65929;49.062;10.338;2023-11-21T03:51:15;1.58;;;1.20;;
76995;SDS011;65929;49.062;10.338;2023-11-21T03:52:15;3.13;;;1.30;;
76995;SDS011;65929;49.062;10.338;2023-11-21T03:53:16;1.63;;;1.10;;
76995;SDS011;65929;49.062;10.338;2023-11-21T03:54:17;1.55;;;1.10;;
76995;SDS011;65929;49.062;10.338;2023-11-21T03:55:20;2.22;;;1.20;;
76995;SDS011;65929;49.062;10.338;2023-11-21T03:56:20;3.25;;;1.40;;
76995;SDS011;65929;49.062;10.338;2023-11-21T03:57:24;7.43;;;1.40;;
76995;SDS011;65929;49.062;10.338;2023-11-21T03:58:25;1.60;;;0.90;;
76995;SDS011;65929;49.062;10.338;2023-11-21T03:59:26;4.43;;;1.60;;
76995;SDS011;65929;49.062;10.338;2023-11-21T04:00:27;3.00;;;1.02;;
76995;SDS011;65929;49.062;10.338;2023-11-21T04:01:28;1.70;;;1.42;;
76995;SDS011;65929;49.062;10.338;2023-11-21T04:02:29;2.28;;;1.00;;
76995;SDS011;65929;49.062;10.338;2023-11-21T04:03:31;2.40;;;1.10;;
76995;SDS011;65929;49.062;10.338;2023-11-21T04:04:32;3.15;;;1.35;;
76995;SDS011;65929;49.062;10.338;2023-11-21T04:05:33;4.07;;;1.30;;
76995;SDS011;65929;49.062;10.338;2023-11-21T04:06:34;2.75;;;1.30;;
76995;SDS011;65929;49.062;10.338;2023-11-21T04:07:36;3.03;;;1.17;;
76995;SDS011;65929;49.062;10.338;2023-11-21T04:08:38;6.15;;;1.20;;
76995;SDS011;65929;49.062;10.338;2023-11-21T04:09:39;1.73;;;1.10;;
76995;SDS011;65929;49.062;10.338;2023-11-21T04:10:42;3.03;;;1.08;;
76995;SDS011;65929;49.062;10.338;2023-11-21T04:11:43;3.78;;;1.33;;
76995;SDS011;65929;49.062;10.338;2023-11-21T04:12:45;2.35;;;1.27;;
76995;SDS011;65929;49.062;10.338;2023-11-21T04:13:46;3.42;;;1.42;;
76995;SDS011;65929;49.062;10.338;2023-11-21T04:14:47;3.10;;;1.45;;
76995;SDS011;65929;49.062;10.338;2023-11-21T04:15:48;1.73;;;1.05;;
76995;SDS011;65929;49.062;10.338;2023-11-21T04:16:49;4.15;;;1.48;;
76995;SDS011;65929;49.062;10.338;2023-11-21T04:17:50;1.40;;;1.20;;
76995;SDS011;65929;49.062;10.338;2023-11-21T04:18:51;3.40;;;1.50;;
76995;SDS011;65929;49.062;10.338;2023-11-21T04:19:52;1.73;;;1.20;;
76995;SDS011;65929;49.062;10.338;2023-11-21T04:20:53;2.40;;;1.25;;
76995;SDS011;65929;49.062;10.338;2023-11-21T04:21:54;4.93;;;1.48;;
76995;SDS011;65929;49.062;10.338;2023-11-21T04:22:55;2.67;;;1.30;;
76995;SDS011;65929;49.062;10.338;2023-11-21T04:23:56;2.65;;;1.40;;
76995;SDS011;65929;49.062;10.338;2023-11-21T04:24:57;3.45;;;1.30;;
76995;SDS011;65929;49.062;10.338;2023-11-21T04:25:59;2.08;;;1.38;;
76995;SDS011;65929;49.062;10.338;2023-11-21T04:27:02;2.60;;;1.42;;
76995;SDS011;65929;49.062;10.338;2023-11-21T04:28:03;1.88;;;1.20;;
76995;SDS011;65929;49.062;10.338;2023-11-21T04:29:04;2.25;;;1.20;;
76995;SDS011;65929;49.062;10.338;2023-11-21T04:30:05;3.47;;;1.40;;
76995;SDS011;65929;49.062;10.338;2023-11-21T04:31:07;3.33;;;1.40;;
76995;SDS011;65929;49.062;10.338;2023-11-21T04:32:08;2.45;;;1.40;;
76995;SDS011;65929;49.062;10.338;2023-11-21T04:33:08;3.33;;;1.20;;
76995;SDS011;65929;49.062;10.338;2023-11-21T04:34:09;2.40;;;1.33;;
76995;SDS011;65929;49.062;10.338;2023-11-21T04:35:10;2.92;;;1.30;;
76995;SDS011;65929;49.062;10.338;2023-11-21T04:36:11;1.60;;;1.10;;
76995;SDS011;65929;49.062;10.338;2023-11-21T04:37:12;2.85;;;1.00;;
76995;SDS011;65929;49.062;10.338;2023-11-21T04:38:13;3.22;;;1.40;;
76995;SDS011;65929;49.062;10.338;2023-11-21T04:39:14;1.48;;;1.00;;
76995;SDS011;65929;49.062;10.338;2023-11-21T04:40:15;2.17;;;1.25;;
76995;SDS011;65929;49.062;10.338;2023-11-21T04:41:17;2.58;;;1.40;;
76995;SDS011;65929;49.062;10.338;2023-11-21T04:42:18;2.00;;;1.27;;
76995;SDS011;65929;49.062;10.338;2023-11-21T04:43:19;1.50;;;1.10;;
76995;SDS011;65929;49.062;10.338;2023-11-21T04:44:20;2.33;;;1.20;;
76995;SDS011;65929;49.062;10.338;2023-11-21T04:45:21;2.83;;;1.45;;
76995;SDS011;65929;49.062;10.338;2023-11-21T04:46:21;2.00;;;1.00;;
76995;SDS011;65929;49.062;10.338;2023-11-21T04:47:22;2.03;;;0.93;;
76995;SDS011;65929;49.062;10.338;2023-11-21T04:48:23;2.33;;;1.10;;
76995;SDS011;65929;49.062;10.338;2023-11-21T04:49:25;1.60;;;0.98;;
76995;SDS011;65929;49.062;10.338;2023-11-21T04:50:26;2.60;;;1.30;;
76995;SDS011;65929;49.062;10.338;2023-11-21T04:51:27;2.58;;;0.85;;
76995;SDS011;65929;49.062;10.338;2023-11-21T04:52:28;1.30;;;0.82;;
76995;SDS011;65929;49.062;10.338;2023-11-21T04:53:29;2.97;;;1.33;;
76995;SDS011;65929;49.062;10.338;2023-11-21T04:54:30;1.27;;;1.00;;
76995;SDS011;65929;49.062;10.338;2023-11-21T04:55:31;2.50;;;1.23;;
76995;SDS011;65929;49.062;10.338;2023-11-21T04:56:33;2.42;;;0.98;;
76995;SDS011;65929;49.062;10.338;2023-11-21T04:57:34;2.47;;;1.10;;
76995;SDS011;65929;49.062;10.338;2023-11-21T04:58:35;2.42;;;1.10;;
76995;SDS011;65929;49.062;10.338;2023-11-21T04:59:36;2.42;;;1.20;;
76995;SDS011;65929;49.062;10.338;2023-11-21T05:00:37;3.42;;;1.10;;
76995;SDS011;65929;49.062;10.338;2023-11-21T05:01:38;1.05;;;0.95;;
76995;SDS011;65929;49.062;10.338;2023-11-21T05:02:39;1.42;;;0.90;;
76995;SDS011;65929;49.062;10.338;2023-11-21T05:03:41;1.80;;;1.20;;
76995;SDS011;65929;49.062;10.338;2023-11-21T05:04:42;1.15;;;0.98;;
76995;SDS011;65929;49.062;10.338;2023-11-21T05:05:43;2.25;;;1.00;;
76995;SDS011;65929;49.062;10.338;2023-11-21T05:06:44;2.85;;;1.00;;
76995;SDS011;65929;49.062;10.338;2023-11-21T05:07:46;1.40;;;1.00;;
76995;SDS011;65929;49.062;10.338;2023-11-21T05:08:49;1.60;;;1.08;;
76995;SDS011;65929;49.062;10.338;2023-11-21T05:09:50;1.10;;;1.00;;
76995;SDS011;65929;49.062;10.338;2023-11-21T05:10:51;1.30;;;1.00;;
76995;SDS011;65929;49.062;10.338;2023-11-21T05:11:53;1.42;;;1.10;;
76995;SDS011;65929;49.062;10.338;2023-11-21T05:12:54;1.52;;;0.85;;
76995;SDS011;65929;49.062;10.338;2023-11-21T05:13:55;1.35;;;1.02;;
76995;SDS011;65929;49.062;10.338;2023-11-21T05:14:58;2.33;;;1.10;;
76995;SDS011;65929;49.062;10.338;2023-11-21T05:15:59;1.45;;;1.02;;
76995;SDS011;65929;49.062;10.338;2023-11-21T05:17:00;1.67;;;1.15;;
76995;SDS011;65929;49.062;10.338;2023-11-21T05:18:01;2.55;;;1.17;;
76995;SDS011;65929;49.062;10.338;2023-11-21T05:19:02;2.55;;;1.05;;
76995;SDS011;65929;49.062;10.338;2023-11-21T05:20:04;2.20;;;1.42;;
76995;SDS011;65929;49.062;10.338;2023-11-21T05:21:08;2.53;;;1.30;;
76995;SDS011;65929;49.062;10.338;2023-11-21T05:22:09;1.33;;;1.23;;
76995;SDS011;65929;49.062;10.338;2023-11-21T05:23:12;1.63;;;1.20;;
76995;SDS011;65929;49.062;10.338;2023-11-21T05:24:13;1.88;;;1.70;;
76995;SDS011;65929;49.062;10.338;2023-11-21T05:25:13;1.35;;;1.10;;
76995;SDS011;65929;49.062;10.338;2023-11-21T05:26:15;1.17;;;1.02;;
76995;SDS011;65929;49.062;10.338;2023-11-21T05:27:17;1.50;;;1.20;;
76995;SDS011;65929;49.062;10.338;2023-11-21T05:28:18;3.15;;;1.20;;
76995;SDS011;65929;49.062;10.338;2023-11-21T05:29:19;2.00;;;1.20;;
76995;SDS011;65929;49.062;10.338;2023-11-21T05:30:21;1.45;;;0.98;;
76995;SDS011;65929;49.062;10.338;2023-11-21T05:31:22;1.80;;;1.00;;
76995;SDS011;65929;49.062;10.338;2023-11-21T05:32:23;1.95;;;1.13;;
76995;SDS011;65929;49.062;10.338;2023-11-21T05:33:24;1.05;;;0.95;;
76995;SDS011;65929;49.062;10.338;2023-11-21T05:34:25;2.40;;;1.30;;
76995;SDS011;65929;49.062;10.338;2023-11-21T05:35:26;1.67;;;1.20;;
76995;SDS011;65929;49.062;10.338;2023-11-21T05:36:27;2.45;;;1.17;;
76995;SDS011;65929;49.062;10.338;2023-11-21T05:37:28;3.08;;;1.40;;
76995;SDS011;65929;49.062;10.338;2023-11-21T05:38:29;2.28;;;1.20;;
76995;SDS011;65929;49.062;10.338;2023-11-21T05:39:29;2.33;;;1.38;;
76995;SDS011;65929;49.062;10.338;2023-11-21T05:40:30;2.10;;;1.40;;
76995;SDS011;65929;49.062;10.338;2023-11-21T05:41:31;1.17;;;0.93;;
76995;SDS011;65929;49.062;10.338;2023-11-21T05:42:33;2.83;;;1.73;;
76995;SDS011;65929;49.062;10.338;2023-11-21T05:43:35;3.25;;;1.85;;
76995;SDS011;65929;49.062;10.338;2023-11-21T05:44:36;3.13;;;1.48;;
76995;SDS011;65929;49.062;10.338;2023-11-21T05:45:37;2.95;;;1.27;;
76995;SDS011;65929;49.062;10.338;2023-11-21T05:46:38;2.17;;;1.13;;
76995;SDS011;65929;49.062;10.338;2023-11-21T05:47:39;2.70;;;1.35;;
76995;SDS011;65929;49.062;10.338;2023-11-21T05:48:41;1.90;;;1.23;;
76995;SDS011;65929;49.062;10.338;2023-11-21T05:49:42;1.67;;;1.05;;
76995;SDS011;65929;49.062;10.338;2023-11-21T05:50:45;1.50;;;1.20;;
76995;SDS011;65929;49.062;10.338;2023-11-21T05:51:46;1.92;;;1.00;;
76995;SDS011;65929;49.062;10.338;2023-11-21T05:52:47;2.03;;;1.40;;
76995;SDS011;65929;49.062;10.338;2023-11-21T05:53:48;3.00;;;1.55;;
76995;SDS011;65929;49.062;10.338;2023-11-21T05:54:49;3.78;;;1.50;;
76995;SDS011;65929;49.062;10.338;2023-11-21T05:55:50;2.38;;;1.30;;
76995;SDS011;65929;49.062;10.338;2023-11-21T05:56:51;3.30;;;1.20;;
76995;SDS011;65929;49.062;10.338;2023-11-21T05:57:53;2.03;;;1.35;;
76995;SDS011;65929;49.062;10.338;2023-11-21T05:58:54;2.22;;;1.60;;
76995;SDS011;65929;49.062;10.338;2023-11-21T05:59:55;1.95;;;1.48;;
76995;SDS011;65929;49.062;10.338;2023-11-21T06:00:56;48.40;;;19.40;;
76995;SDS011;65929;49.062;10.338;2023-11-21T06:01:57;30.35;;;12.55;;
76995;SDS011;65929;49.062;10.338;2023-11-21T06:02:59;37.70;;;12.77;;
76995;SDS011;65929;49.062;10.338;2023-11-21T06:04:00;36.83;;;11.60;;